Airport ICAO


07:26 UTC

8°C


An affordable passengers' Moving Map for your aircraft. Made for the iPad and the iPhone
More information here

LFPT Cormeilles En Vexin


Pontoise FRANCE   IFR CAT I


METAR LFPT 200700Z AUTO 00000KT 6000 VV/// 08/08 Q1023 0h26min





NOTAMS

OPEN